Time;durP1;ratioP1;P1;durP2;ratioP2;P2;SDS_P1;SDS_P2;PMS_P1;PMS_P2;Temp;Humidity;BMP_temperature;BMP_pressure;BME280_temperature;BME280_humidity;BME280_pressure;Samples;Min_cycle;Max_cycle;Signal;HPM_P1;HPM_P2
2022/08/05 00:00:30;;;;;;;8.85;2.92;;;;;;;22.36;100.00;100271.56;5176416;28;20023;-70
2022/08/05 00:03:01;;;;;;;6.93;3.22;;;;;;;22.36;100.00;100234.25;5168681;28;20510;-70
2022/08/05 00:05:31;;;;;;;9.95;3.20;;;;;;;22.26;100.00;100244.06;5180235;28;20032;-70
2022/08/05 00:08:02;;;;;;;6.07;3.13;;;;;;;21.84;100.00;100239.84;5166818;28;20025;-70
2022/08/05 00:10:32;;;;;;;5.07;3.13;;;;;;;21.23;100.00;100238.06;5166643;28;20484;-70
2022/08/05 00:13:02;;;;;;;8.50;3.13;;;;;;;21.53;100.00;100238.09;5171282;28;20145;-70
2022/08/05 00:15:33;;;;;;;11.05;3.47;;;;;;;21.61;100.00;100273.72;5168504;28;20035;-70
2022/08/05 00:18:03;;;;;;;9.40;3.47;;;;;;;21.89;100.00;100360.06;5170663;28;20050;-69
2022/08/05 00:20:33;;;;;;;7.13;3.00;;;;;;;22.07;100.00;100411.75;5167538;28;20030;-70
2022/08/05 00:23:04;;;;;;;22.77;5.05;;;;;;;22.23;100.00;100380.16;5172035;28;20435;-70
2022/08/05 00:25:34;;;;;;;11.88;4.00;;;;;;;22.17;100.00;100424.13;5168531;28;20451;-70
2022/08/05 00:28:04;;;;;;;6.82;3.33;;;;;;;22.10;100.00;100449.56;5173333;28;20038;-70
2022/08/05 00:30:35;;;;;;;7.10;3.50;;;;;;;22.08;100.00;100466.66;5174376;28;20400;-70
2022/08/05 00:33:05;;;;;;;7.72;3.42;;;;;;;22.06;100.00;100447.31;5168260;28;20068;-70
2022/08/05 00:35:35;;;;;;;10.73;3.35;;;;;;;22.29;100.00;100424.88;5184138;28;20116;-71
2022/08/05 00:38:06;;;;;;;17.23;4.70;;;;;;;22.16;100.00;100397.63;5171602;28;20434;-70
2022/08/05 00:40:46;;;;;;;10.82;3.90;;;;;;;21.98;100.00;100405.38;5167801;28;20022;-70
2022/08/05 00:43:17;;;;;;;8.02;3.88;;;;;;;22.07;100.00;100399.25;5161581;28;20023;-70
2022/08/05 00:45:47;;;;;;;7.65;3.47;;;;;;;22.02;100.00;100381.97;5169048;28;20057;-70
2022/08/05 00:48:20;;;;;;;8.45;3.60;;;;;;;22.04;100.00;100374.69;5170963;28;20033;-70
2022/08/05 00:50:51;;;;;;;9.43;4.05;;;;;;;21.98;100.00;100372.56;5171990;28;20100;-71
2022/08/05 00:53:22;;;;;;;8.02;3.70;;;;;;;21.93;100.00;100372.97;5169360;28;20026;-70
2022/08/05 00:55:52;;;;;;;9.82;3.58;;;;;;;21.97;100.00;100368.22;5171331;28;20067;-70
2022/08/05 00:58:23;;;;;;;9.40;3.90;;;;;;;21.88;100.00;100399.13;5177122;28;20026;-70
2022/08/05 01:00:53;;;;;;;8.32;3.65;;;;;;;21.83;100.00;100429.75;5172655;28;20053;-70
2022/08/05 01:03:24;;;;;;;8.32;3.67;;;;;;;21.79;100.00;100465.59;5168077;28;20034;-71
2022/08/05 01:05:55;;;;;;;6.85;3.22;;;;;;;21.87;100.00;100463.97;5174906;28;20402;-71
2022/08/05 01:08:25;;;;;;;11.10;4.03;;;;;;;22.03;100.00;100423.59;5168951;28;20414;-70
2022/08/05 01:11:01;;;;;;;16.57;6.20;;;;;;;22.01;100.00;100394.47;5167183;28;20040;-71
2022/08/05 01:14:09;;;;;;;10.68;4.00;;;;;;;21.89;100.00;100413.31;5170045;28;20368;-71
2022/08/05 01:16:43;;;;;;;10.20;3.55;;;;;;;21.96;100.00;100423.31;5167762;28;20026;-70
2022/08/05 01:19:22;;;;;;;8.63;3.70;;;;;;;21.84;100.00;100411.03;5175994;28;20049;-70
2022/08/05 01:22:24;;;;;;;7.90;3.47;;;;;;;21.80;100.00;100411.41;5169390;28;20476;-70
2022/08/05 01:25:09;;;;;;;10.48;3.90;;;;;;;21.68;100.00;100409.75;5170061;28;20272;-70
2022/08/05 01:28:04;;;;;;;8.50;3.63;;;;;;;21.65;100.00;100418.00;5169416;28;20101;-70
2022/08/05 01:30:38;;;;;;;9.98;3.80;;;;;;;21.75;100.00;100417.09;5167307;28;20522;-70
2022/08/05 01:33:10;;;;;;;9.10;4.00;;;;;;;21.82;100.00;100404.13;5167229;28;20116;-70
2022/08/05 01:35:44;;;;;;;9.60;3.70;;;;;;;21.80;100.00;100400.75;5175197;28;20030;-70
2022/08/05 01:38:17;;;;;;;7.57;3.67;;;;;;;21.72;100.00;100395.25;5177032;28;20064;-70
2022/08/05 01:40:48;;;;;;;8.27;4.28;;;;;;;21.61;100.00;100392.59;5173060;28;20034;-70
2022/08/05 01:43:20;;;;;;;6.90;3.50;;;;;;;21.55;100.00;100382.47;5174914;28;20058;-70
2022/08/05 01:45:54;;;;;;;6.88;4.45;;;;;;;21.47;100.00;100364.50;5176331;28;20048;-70
2022/08/05 01:48:27;;;;;;;8.52;4.05;;;;;;;21.39;100.00;100374.09;5173179;28;20468;-70
2022/08/05 01:50:57;;;;;;;9.27;4.35;;;;;;;21.26;100.00;100394.69;5171776;28;20243;-70
2022/08/05 01:53:29;;;;;;;11.45;4.60;;;;;;;21.34;100.00;100408.16;5173085;28;20033;-70
2022/08/05 01:56:01;;;;;;;9.63;4.35;;;;;;;21.38;100.00;100420.28;5171142;28;20085;-70
2022/08/05 01:58:33;;;;;;;10.30;4.10;;;;;;;21.37;100.00;100426.56;5173064;28;20033;-70
2022/08/05 02:01:05;;;;;;;10.68;4.60;;;;;;;21.37;100.00;100423.91;5172748;28;20032;-70
2022/08/05 02:03:37;;;;;;;8.48;4.50;;;;;;;21.36;100.00;100414.22;5174799;28;20026;-70
2022/08/05 02:06:09;;;;;;;11.95;4.20;;;;;;;21.26;100.00;100418.59;5170030;28;20019;-70
2022/08/05 02:08:39;;;;;;;10.43;4.40;;;;;;;21.24;100.00;100420.56;5171563;28;20082;-70
2022/08/05 02:11:12;;;;;;;6.90;4.10;;;;;;;21.42;100.00;100416.38;5170321;28;20112;-70
2022/08/05 02:13:52;;;;;;;5.45;3.90;;;;;;;21.51;100.00;100402.31;5171117;28;20373;-70
2022/08/05 02:16:31;;;;;;;8.40;4.28;;;;;;;21.62;100.00;100411.13;5168676;28;20361;-70
2022/08/05 02:19:09;;;;;;;7.78;3.80;;;;;;;21.59;100.00;100414.00;5178187;28;20391;-70
2022/08/05 02:21:46;;;;;;;8.27;4.10;;;;;;;21.64;100.00;100437.59;5171282;28;20587;-70
2022/08/05 02:24:20;;;;;;;8.20;3.90;;;;;;;21.53;100.00;100432.28;5170186;28;20022;-70
2022/08/05 02:26:57;;;;;;;9.93;4.55;;;;;;;21.39;100.00;100429.94;5171621;28;20256;-70
2022/08/05 02:29:28;;;;;;;7.30;4.13;;;;;;;21.28;100.00;100436.13;5171727;28;20032;-70
2022/08/05 02:32:00;;;;;;;9.32;4.18;;;;;;;21.36;100.00;100440.81;5203354;23;20077;-78
2022/08/05 02:34:33;;;;;;;7.70;4.45;;;;;;;21.44;100.00;100433.06;5204427;28;20057;-77
2022/08/05 02:37:08;;;;;;;7.65;3.90;;;;;;;21.35;100.00;100433.78;5201389;28;20432;-77
2022/08/05 02:39:40;;;;;;;4.72;3.40;;;;;;;21.42;100.00;100441.16;5197934;28;20025;-77
2022/08/05 02:42:13;;;;;;;8.30;4.50;;;;;;;21.46;100.00;100452.38;5202126;28;20025;-76
2022/08/05 02:44:44;;;;;;;8.43;3.70;;;;;;;21.41;100.00;100454.59;5201993;28;20025;-75
2022/08/05 02:47:15;;;;;;;8.68;4.30;;;;;;;21.20;100.00;100446.53;5201903;28;20025;-76
2022/08/05 02:49:47;;;;;;;10.40;4.53;;;;;;;21.28;100.00;100449.44;5201718;28;20048;-75
2022/08/05 02:52:19;;;;;;;10.70;4.25;;;;;;;21.15;100.00;100456.72;5201595;28;20502;-76
2022/08/05 02:54:50;;;;;;;10.90;4.80;;;;;;;21.08;100.00;100452.00;5201977;28;20060;-76
2022/08/05 02:57:23;;;;;;;7.45;3.92;;;;;;;21.19;100.00;100455.47;5200348;28;20017;-75
2022/08/05 02:59:54;;;;;;;7.30;4.20;;;;;;;21.07;100.00;100463.59;5201775;28;20034;-76
2022/08/05 03:02:28;;;;;;;8.63;4.38;;;;;;;21.08;100.00;100475.94;5202126;28;20087;-76
2022/08/05 03:04:59;;;;;;;8.63;4.00;;;;;;;21.13;100.00;100484.38;5205166;28;20099;-75
2022/08/05 03:07:30;;;;;;;9.45;4.32;;;;;;;21.08;100.00;100494.53;5201324;28;20022;-74
2022/08/05 03:10:01;;;;;;;9.88;4.65;;;;;;;21.29;100.00;100504.31;5200899;28;20108;-75
2022/08/05 03:12:34;;;;;;;9.65;4.80;;;;;;;21.16;100.00;100498.28;5200943;28;20044;-75
2022/08/05 03:15:07;;;;;;;7.85;4.38;;;;;;;21.16;100.00;100498.28;5198044;28;20025;-75
2022/08/05 03:17:37;;;;;;;9.90;5.20;;;;;;;21.30;100.00;100489.19;5201203;28;20060;-75
2022/08/05 03:20:08;;;;;;;11.18;5.20;;;;;;;21.20;100.00;100478.44;5201534;28;20053;-75
2022/08/05 03:22:39;;;;;;;11.23;5.30;;;;;;;21.00;100.00;100478.34;5200473;28;20092;-75
2022/08/05 03:25:10;;;;;;;10.13;5.07;;;;;;;21.06;100.00;100445.97;5202335;28;20021;-75
2022/08/05 03:27:40;;;;;;;9.38;5.18;;;;;;;21.05;100.00;100436.31;5200843;28;20061;-75
2022/08/05 03:30:11;;;;;;;13.23;5.57;;;;;;;20.97;100.00;100422.78;5201262;28;20067;-75
2022/08/05 03:32:42;;;;;;;11.85;5.53;;;;;;;20.94;100.00;100423.03;5199758;28;20033;-75
2022/08/05 03:35:13;;;;;;;14.38;5.97;;;;;;;21.00;100.00;100433.16;5200864;28;20091;-74
2022/08/05 03:37:43;;;;;;;12.80;5.68;;;;;;;20.91;100.00;100452.50;5200704;28;20033;-75
2022/08/05 03:40:14;;;;;;;12.65;5.80;;;;;;;20.96;100.00;100475.09;5201031;28;20057;-75
2022/08/05 03:42:44;;;;;;;11.52;6.15;;;;;;;20.89;100.00;100489.00;5200792;28;20033;-75
2022/08/05 03:45:14;;;;;;;13.23;5.70;;;;;;;20.80;100.00;100481.69;5201492;28;20022;-75
2022/08/05 03:47:45;;;;;;;13.02;5.90;;;;;;;20.85;100.00;100499.00;5200632;28;20358;-75
2022/08/05 03:50:15;;;;;;;11.35;6.05;;;;;;;20.86;100.00;100506.00;5200858;28;20048;-75
2022/08/05 03:52:52;;;;;;;14.40;5.90;;;;;;;20.42;100.00;100505.09;5200950;28;20036;-75
2022/08/05 03:55:30;;;;;;;11.93;5.93;;;;;;;20.47;100.00;100497.63;5200714;28;20113;-75
2022/08/05 03:58:02;;;;;;;11.55;5.97;;;;;;;20.54;100.00;100477.59;5200270;28;20113;-75
2022/08/05 04:00:33;;;;;;;13.82;5.85;;;;;;;20.57;100.00;100455.25;5199818;28;20030;-75
2022/08/05 04:03:05;;;;;;;11.27;6.47;;;;;;;20.52;100.00;100447.66;5203986;28;20258;-75
2022/08/05 04:05:37;;;;;;;13.05;5.80;;;;;;;20.26;100.00;100451.50;5198210;28;20025;-75
2022/08/05 04:08:09;;;;;;;9.48;5.82;;;;;;;20.25;100.00;100441.84;5200004;28;20450;-75
2022/08/05 04:10:42;;;;;;;9.73;5.72;;;;;;;20.56;100.00;100445.59;5200125;28;20033;-75
2022/08/05 04:13:13;;;;;;;11.32;5.53;;;;;;;20.41;100.00;100450.31;5200430;28;20044;-75
2022/08/05 04:15:45;;;;;;;14.82;6.63;;;;;;;20.34;100.00;100451.75;5200105;28;20130;-75
2022/08/05 04:18:15;;;;;;;12.00;5.50;;;;;;;20.19;100.00;100441.47;5200167;28;20055;-74
2022/08/05 04:20:52;;;;;;;12.77;6.18;;;;;;;20.18;100.00;100456.56;5200465;28;20041;-75
2022/08/05 04:23:24;;;;;;;9.55;5.93;;;;;;;20.21;100.00;100440.41;5200635;28;20025;-75
2022/08/05 04:25:54;;;;;;;13.48;6.55;;;;;;;20.05;100.00;100437.22;5198946;28;20037;-75
2022/08/05 04:28:25;;;;;;;16.17;7.00;;;;;;;20.12;100.00;100425.16;5199627;28;20033;-75
2022/08/05 04:30:55;;;;;;;12.50;6.82;;;;;;;20.12;100.00;100427.81;5199593;28;20029;-74
2022/08/05 04:33:26;;;;;;;16.95;7.05;;;;;;;20.15;100.00;100414.31;5203828;28;20087;-75
2022/08/05 04:35:56;;;;;;;13.73;6.90;;;;;;;20.18;100.00;100405.25;5199913;28;20060;-75
2022/08/05 04:38:26;;;;;;;19.13;7.22;;;;;;;20.05;100.00;100384.16;5199893;28;20037;-75
2022/08/05 04:40:57;;;;;;;17.25;6.57;;;;;;;20.01;100.00;100381.81;5200188;28;20032;-75
2022/08/05 04:43:27;;;;;;;12.40;7.35;;;;;;;20.04;100.00;100374.50;5200046;28;20466;-75
2022/08/05 04:45:57;;;;;;;13.52;7.32;;;;;;;19.90;100.00;100332.22;5200139;28;20047;-77
2022/08/05 04:48:28;;;;;;;15.10;7.07;;;;;;;19.86;100.00;100320.19;5199323;28;20421;-77
2022/08/05 04:50:58;;;;;;;13.68;7.95;;;;;;;19.87;100.00;100307.75;5198538;28;20117;-77
2022/08/05 04:53:28;;;;;;;18.80;7.72;;;;;;;19.94;100.00;100301.84;5198941;28;20030;-77
2022/08/05 04:55:59;;;;;;;12.75;7.18;;;;;;;20.03;100.00;100309.13;5199743;28;20025;-78
2022/08/05 04:58:29;;;;;;;9.98;6.53;;;;;;;20.06;100.00;100303.56;5199099;28;20158;-78
2022/08/05 05:00:59;;;;;;;11.73;6.30;;;;;;;20.07;100.00;100309.72;5198450;28;20410;-77
2022/08/05 05:03:29;;;;;;;12.00;6.10;;;;;;;20.15;100.00;100325.88;5202961;28;20029;-77
2022/08/05 05:06:00;;;;;;;9.25;4.78;;;;;;;20.33;100.00;100314.66;5199878;28;20187;-78
2022/08/05 05:08:30;;;;;;;8.70;4.28;;;;;;;20.52;100.00;100320.19;5199256;28;20033;-77
2022/08/05 05:11:00;;;;;;;7.30;4.30;;;;;;;20.70;100.00;100334.66;5200004;28;20407;-77
2022/08/05 05:13:31;;;;;;;10.60;4.57;;;;;;;20.81;100.00;100366.50;5199160;28;20029;-77
2022/08/05 05:16:01;;;;;;;8.20;4.47;;;;;;;20.61;100.00;100377.88;5199220;28;20041;-77
2022/08/05 05:18:32;;;;;;;12.07;4.68;;;;;;;20.61;100.00;100382.34;5198791;28;20064;-77
2022/08/05 05:21:02;;;;;;;9.20;5.43;;;;;;;20.82;100.00;100369.03;5196448;28;20060;-77
2022/08/05 05:23:33;;;;;;;12.40;5.13;;;;;;;21.05;100.00;100377.84;5198077;28;20037;-77
2022/08/05 05:26:03;;;;;;;8.38;5.05;;;;;;;21.14;100.00;100367.28;5195632;28;20033;-77
2022/08/05 05:28:33;;;;;;;8.40;4.97;;;;;;;21.36;100.00;100380.50;5196068;28;20029;-78
2022/08/05 05:31:04;;;;;;;10.73;5.20;;;;;;;21.41;100.00;100375.63;5197990;28;20029;-78
2022/08/05 05:33:34;;;;;;;10.50;4.68;;;;;;;21.39;100.00;100374.09;5192778;28;20087;-77
2022/08/05 05:36:05;;;;;;;9.27;4.97;;;;;;;21.29;100.00;100395.28;5199130;28;20029;-75
2022/08/05 05:38:35;;;;;;;10.05;5.25;;;;;;;21.20;100.00;100411.16;5197957;28;20360;-78
2022/08/05 05:41:05;;;;;;;18.80;9.82;;;;;;;21.23;100.00;100408.22;5199386;28;20120;-78
2022/08/05 05:43:36;;;;;;;8.98;5.40;;;;;;;21.55;100.00;100414.41;5199090;28;20021;-78
2022/08/05 05:46:06;;;;;;;10.15;5.60;;;;;;;21.69;100.00;100427.41;5199775;28;20040;-78
2022/08/05 05:48:37;;;;;;;10.43;5.30;;;;;;;21.64;100.00;100427.81;5199065;28;20112;-77
2022/08/05 05:51:07;;;;;;;12.95;5.78;;;;;;;21.81;100.00;100442.34;5199369;28;20021;-78
2022/08/05 05:53:37;;;;;;;9.27;5.65;;;;;;;23.77;100.00;100441.63;5198948;28;20044;-78
2022/08/05 05:56:08;;;;;;;7.60;4.50;;;;;;;24.83;100.00;100450.13;5199212;28;20495;-76
2022/08/05 05:58:38;;;;;;;10.30;4.82;;;;;;;24.41;100.00;100444.50;5194282;28;20057;-76
2022/08/05 06:01:09;;;;;;;8.23;4.10;;;;;;;24.02;100.00;100457.09;5195261;28;20463;-75
2022/08/05 06:03:40;;;;;;;11.57;4.55;;;;;;;23.71;100.00;100460.88;5201593;28;20033;-74
2022/08/05 06:06:10;;;;;;;9.30;5.05;;;;;;;22.99;100.00;100466.63;5199110;28;20029;-75
2022/08/05 06:08:41;;;;;;;8.35;4.70;;;;;;;23.05;100.00;100466.06;5198551;28;20022;-76
2022/08/05 06:11:11;;;;;;;12.38;5.50;;;;;;;22.96;100.00;100470.41;5198864;28;20410;-75
2022/08/05 06:13:41;;;;;;;10.48;5.30;;;;;;;23.33;100.00;100476.00;5199305;28;20276;-76
2022/08/05 06:16:11;;;;;;;11.18;5.60;;;;;;;23.16;100.00;100474.84;5198066;28;20018;-74
2022/08/05 06:18:42;;;;;;;10.40;5.10;;;;;;;22.60;100.00;100498.56;5197754;28;20033;-75
2022/08/05 06:21:12;;;;;;;10.88;5.32;;;;;;;22.41;100.00;100504.63;5198105;28;20037;-75
2022/08/05 06:23:43;;;;;;;9.15;5.90;;;;;;;22.08;100.00;100499.44;5199265;28;20230;-75
2022/08/05 06:26:14;;;;;;;9.57;5.90;;;;;;;22.09;100.00;100501.13;5203288;28;20045;-75
2022/08/05 06:28:45;;;;;;;10.88;5.70;;;;;;;22.17;100.00;100509.34;5202385;28;20064;-75
2022/08/05 06:31:15;;;;;;;9.85;5.47;;;;;;;22.07;100.00;100520.88;5202147;28;20032;-76
2022/08/05 06:33:45;;;;;;;15.15;5.82;;;;;;;21.72;100.00;100539.75;5197087;28;20065;-75
2022/08/05 06:36:15;;;;;;;11.50;6.32;;;;;;;21.58;100.00;100541.84;5198485;28;20113;-75
2022/08/05 06:38:46;;;;;;;15.85;7.13;;;;;;;21.81;100.00;100546.16;5201159;28;20036;-75
2022/08/05 06:41:16;;;;;;;15.07;6.55;;;;;;;21.63;100.00;100550.31;5201099;28;20032;-76
2022/08/05 06:43:47;;;;;;;11.88;6.82;;;;;;;21.33;100.00;100536.78;5201379;28;20025;-75
2022/08/05 06:46:18;;;;;;;12.77;7.03;;;;;;;21.49;100.00;100529.25;5201052;28;20041;-75
2022/08/05 06:48:48;;;;;;;13.25;7.43;;;;;;;21.51;100.00;100522.00;5201884;28;20067;-75
2022/08/05 06:51:18;;;;;;;12.05;7.63;;;;;;;21.19;100.00;100532.59;5201536;28;20053;-75
2022/08/05 06:53:49;;;;;;;12.77;6.18;;;;;;;21.06;100.00;100533.69;5201232;28;20067;-75
2022/08/05 06:56:19;;;;;;;13.25;7.00;;;;;;;21.12;100.00;100528.75;5200518;28;20668;-75
2022/08/05 06:58:49;;;;;;;11.52;7.32;;;;;;;21.12;100.00;100520.75;5202128;28;20037;-74
2022/08/05 07:01:20;;;;;;;12.20;6.95;;;;;;;21.07;100.00;100527.41;5202265;28;20029;-75
2022/08/05 07:03:50;;;;;;;15.07;7.35;;;;;;;20.99;100.00;100512.06;5202037;28;20071;-75
2022/08/05 07:06:22;;;;;;;12.93;6.90;;;;;;;21.03;100.00;100518.81;5201366;28;20037;-75
2022/08/05 07:08:52;;;;;;;11.25;7.18;;;;;;;20.98;100.00;100522.81;5201347;28;20033;-75
2022/08/05 07:11:22;;;;;;;19.90;7.25;;;;;;;21.03;100.00;100521.47;5200329;28;20026;-75
2022/08/05 07:16:48;;;;;;;11.93;7.93;;;;;;;21.29;100.00;100527.38;5201613;28;20140;-77
2022/08/05 07:19:20;;;;;;;15.32;7.63;;;;;;;21.14;100.00;100524.13;5201010;28;20021;-77
2022/08/05 07:21:50;;;;;;;15.15;7.65;;;;;;;21.22;100.00;100520.88;5201623;28;20479;-77
2022/08/05 07:24:21;;;;;;;16.40;8.60;;;;;;;21.16;100.00;100516.88;5201926;28;20056;-77
2022/08/05 07:26:51;;;;;;;12.68;7.40;;;;;;;21.18;100.00;100508.75;5200226;28;20057;-77
2022/08/05 07:29:22;;;;;;;13.13;7.78;;;;;;;21.22;100.00;100502.25;5201557;28;20030;-77
2022/08/05 07:31:52;;;;;;;14.27;7.40;;;;;;;21.27;100.00;100495.56;5201310;28;20060;-77
2022/08/05 07:34:22;;;;;;;11.52;7.13;;;;;;;21.41;100.00;100497.97;5201254;28;20035;-77
2022/08/05 07:36:53;;;;;;;13.70;7.45;;;;;;;21.47;100.00;100493.97;5200074;28;20387;-77
2022/08/05 07:39:23;;;;;;;11.90;7.50;;;;;;;21.56;100.00;100495.91;5200783;28;20037;-77
2022/08/05 07:41:53;;;;;;;14.52;7.05;;;;;;;21.53;100.00;100480.16;5201361;28;20037;-77
2022/08/05 07:44:24;;;;;;;14.77;7.63;;;;;;;21.67;100.00;100467.47;5201365;28;20029;-77
2022/08/05 07:46:54;;;;;;;13.90;7.28;;;;;;;21.64;100.00;100469.53;5199184;28;20120;-76
2022/08/05 07:49:24;;;;;;;11.88;7.05;;;;;;;21.60;100.00;100466.22;5200583;28;20036;-77
2022/08/05 07:51:54;;;;;;;13.88;6.53;;;;;;;21.73;100.00;100463.47;5199406;28;20060;-77
2022/08/05 07:54:27;;;;;;;14.23;7.22;;;;;;;21.43;100.00;100442.00;5200405;28;20442;-77
2022/08/05 07:56:58;;;;;;;15.10;8.00;;;;;;;21.13;100.00;100434.72;5200589;28;20838;-77
2022/08/05 07:59:28;;;;;;;14.63;7.93;;;;;;;21.24;100.00;100426.69;5200556;28;20120;-77
2022/08/05 08:02:00;;;;;;;13.63;7.63;;;;;;;21.34;100.00;100425.00;5200604;28;20029;-77
2022/08/05 08:04:30;;;;;;;14.07;8.10;;;;;;;21.49;100.00;100425.53;5204445;28;20610;-77
2022/08/05 08:07:01;;;;;;;12.65;7.05;;;;;;;21.30;100.00;100425.34;5200406;28;20025;-78
2022/08/05 08:09:31;;;;;;;15.70;8.23;;;;;;;21.24;100.00;100423.22;5200351;28;20112;-77
2022/08/05 08:12:01;;;;;;;13.80;7.65;;;;;;;21.18;100.00;100415.72;5200907;28;20134;-77
2022/08/05 08:14:32;;;;;;;14.27;7.60;;;;;;;21.68;100.00;100423.91;5200684;28;20029;-74
2022/08/05 08:17:02;;;;;;;11.65;7.03;;;;;;;21.90;100.00;100436.28;5195672;28;20104;-77
2022/08/05 08:19:32;;;;;;;13.68;7.07;;;;;;;22.09;100.00;100444.41;5195042;28;20552;-77
2022/08/05 08:22:04;;;;;;;14.25;7.18;;;;;;;22.77;100.00;100457.00;5196644;28;20045;-77
2022/08/05 08:24:35;;;;;;;10.93;6.30;;;;;;;22.99;100.00;100459.44;5194765;28;20491;-77
2022/08/05 08:27:05;;;;;;;9.60;5.65;;;;;;;22.59;100.00;100462.25;5198146;28;20021;-77
2022/08/05 08:29:36;;;;;;;11.93;6.40;;;;;;;22.52;100.00;100461.94;5199926;28;20075;-77
2022/08/05 08:32:06;;;;;;;15.45;6.95;;;;;;;22.31;100.00;100462.88;5201741;28;20449;-77
2022/08/05 08:34:36;;;;;;;10.65;5.18;;;;;;;22.38;100.00;100458.72;5200246;28;20021;-77
2022/08/05 08:37:07;;;;;;;10.20;5.50;;;;;;;22.67;100.00;100459.75;5199772;28;20033;-77
2022/08/05 08:39:37;;;;;;;12.23;6.00;;;;;;;22.61;100.00;100462.94;5198652;28;20033;-74
2022/08/05 08:42:08;;;;;;;8.13;4.80;;;;;;;22.59;100.00;100462.25;5200634;28;20030;-77
2022/08/05 08:44:41;;;;;;;11.20;5.15;;;;;;;22.81;100.00;100474.41;5200574;28;20155;-77
2022/08/05 08:47:12;;;;;;;9.93;5.43;;;;;;;22.87;100.00;100478.34;5199625;28;20057;-77
2022/08/05 08:49:44;;;;;;;11.52;5.65;;;;;;;22.86;100.00;100477.50;5199815;28;20395;-77
2022/08/05 08:52:23;;;;;;;10.27;4.80;;;;;;;22.98;100.00;100472.94;5199800;28;20036;-77
2022/08/05 08:54:54;;;;;;;8.25;4.72;;;;;;;23.29;100.00;100466.56;5198022;28;20079;-77
2022/08/05 08:57:25;;;;;;;10.55;5.05;;;;;;;23.50;100.00;100468.16;5199373;28;20037;-76
2022/08/05 08:59:57;;;;;;;9.50;5.10;;;;;;;23.98;100.00;100469.06;5199922;28;20056;-77
2022/08/05 09:02:27;;;;;;;9.63;5.10;;;;;;;23.41;100.00;100468.16;5196864;28;20495;-77
2022/08/05 09:04:58;;;;;;;9.63;4.80;;;;;;;23.29;100.00;100466.56;5201355;28;20170;-76
2022/08/05 09:07:28;;;;;;;13.60;4.90;;;;;;;23.64;100.00;100475.78;5195590;28;20081;-77
2022/08/05 09:09:58;;;;;;;8.05;4.40;;;;;;;23.87;100.00;100471.88;5198319;28;20009;-75
2022/08/05 09:12:29;;;;;;;5.30;3.70;;;;;;;23.99;97.55;100489.44;5197659;28;20514;-75
2022/08/05 09:15:02;;;;;;;5.97;3.90;;;;;;;24.18;99.02;100501.94;5198255;28;20645;-75
2022/08/05 09:17:33;;;;;;;7.10;4.20;;;;;;;23.74;100.00;100513.97;5198078;28;20044;-74
2022/08/05 09:20:04;;;;;;;7.03;4.07;;;;;;;23.62;100.00;100528.44;5198198;28;20021;-75
2022/08/05 09:23:05;;;;;;;8.50;4.60;;;;;;;23.42;100.00;100533.88;5194528;28;20033;-75
2022/08/05 09:25:38;;;;;;;8.98;4.47;;;;;;;23.49;100.00;100522.50;5194611;28;20053;-74
2022/08/05 09:28:19;;;;;;;8.07;4.45;;;;;;;23.03;100.00;100526.69;5197850;28;20041;-75
2022/08/05 09:30:56;;;;;;;9.05;4.88;;;;;;;23.14;100.00;100515.94;5197775;28;20506;-75
2022/08/05 09:33:27;;;;;;;7.68;4.57;;;;;;;23.10;100.00;100512.69;5198270;28;20049;-75
2022/08/05 09:36:04;;;;;;;11.02;4.68;;;;;;;23.19;100.00;100511.91;5198373;28;20017;-75
2022/08/05 09:38:35;;;;;;;9.30;4.60;;;;;;;23.25;100.00;100506.03;5193225;28;20527;-75
2022/08/05 09:41:08;;;;;;;17.73;5.50;;;;;;;23.41;100.00;100511.69;5197939;28;20029;-75
2022/08/05 09:43:39;;;;;;;9.15;5.32;;;;;;;23.49;100.00;100519.84;5197655;28;20419;-75
2022/08/05 09:46:26;;;;;;;9.85;5.65;;;;;;;23.37;100.00;100526.28;5198555;28;20026;-75
2022/08/05 09:48:58;;;;;;;10.95;5.60;;;;;;;23.36;100.00;100540.59;5197688;28;20128;-75
2022/08/05 09:51:36;;;;;;;9.70;5.43;;;;;;;23.08;100.00;100522.66;5198397;28;20037;-75
2022/08/05 09:54:08;;;;;;;9.48;6.25;;;;;;;22.64;100.00;100521.31;5194717;28;20037;-75
2022/08/05 09:56:38;;;;;;;10.30;5.75;;;;;;;22.76;100.00;100516.63;5197673;28;20710;-75
2022/08/05 09:59:13;;;;;;;12.23;6.70;;;;;;;22.58;100.00;100525.34;5195387;28;20054;-75
2022/08/05 10:01:45;;;;;;;11.43;6.10;;;;;;;22.68;100.00;100532.41;5202341;28;20030;-75
2022/08/05 10:04:15;;;;;;;9.60;5.60;;;;;;;22.75;100.00;100533.59;5201839;28;20030;-75
2022/08/05 10:06:56;;;;;;;10.60;6.28;;;;;;;22.79;100.00;100540.34;5201163;28;20040;-75
2022/08/05 10:09:27;;;;;;;11.52;6.88;;;;;;;22.98;100.00;100534.25;5200724;28;20184;-75
2022/08/05 10:12:08;;;;;;;13.10;7.05;;;;;;;23.05;100.00;100538.91;5200954;28;20072;-75
2022/08/05 10:14:39;;;;;;;10.25;7.32;;;;;;;23.03;100.00;100540.03;5200333;28;20042;-75
2022/08/05 10:17:14;;;;;;;13.40;7.40;;;;;;;22.86;100.00;100544.13;5201710;28;20029;-75
2022/08/05 10:19:45;;;;;;;;;;;;;;;22.59;100.00;100547.50;5197022;28;20099;-75
2022/08/05 10:22:16;;;;;;;13.63;8.15;;;;;;;22.44;100.00;100559.47;5201580;28;20313;-75
2022/08/05 10:24:46;;;;;;;11.98;8.07;;;;;;;22.38;100.00;100560.81;5200853;28;20752;-75
2022/08/05 10:27:17;;;;;;;12.57;7.65;;;;;;;22.28;100.00;100569.69;5199831;28;20059;-76
2022/08/05 10:29:47;;;;;;;12.20;7.55;;;;;;;22.08;100.00;100568.66;5200627;28;20037;-75
2022/08/05 10:32:18;;;;;;;10.68;7.45;;;;;;;21.91;100.00;100565.72;5201183;28;20025;-75
2022/08/05 10:34:49;;;;;;;13.98;8.40;;;;;;;22.02;100.00;100563.00;5203116;28;20025;-75
2022/08/05 10:37:20;;;;;;;12.70;7.20;;;;;;;21.97;100.00;100565.22;5200304;28;20133;-75
2022/08/05 10:39:53;;;;;;;12.10;7.97;;;;;;;22.00;100.00;100560.50;5200706;28;20072;-75
2022/08/05 10:42:25;;;;;;;11.98;8.20;;;;;;;21.98;100.00;100566.91;5200351;28;20103;-75
2022/08/05 10:44:56;;;;;;;14.68;8.90;;;;;;;21.81;100.00;100570.97;5200930;28;20052;-75
2022/08/05 10:47:32;;;;;;;17.02;11.35;;;;;;;21.57;100.00;100577.41;5200490;28;20045;-76
2022/08/05 10:50:12;;;;;;;18.67;11.98;;;;;;;21.79;100.00;100580.03;5200859;28;20034;-75
2022/08/05 10:52:56;;;;;;;13.88;9.65;;;;;;;21.80;100.00;100571.06;5197018;28;20202;-75
2022/08/05 10:55:27;;;;;;;14.50;8.52;;;;;;;21.86;100.00;100579.41;5199351;28;20030;-75
2022/08/05 10:58:10;;;;;;;17.92;10.05;;;;;;;21.79;100.00;100583.56;5200060;28;20036;-75
2022/08/05 11:00:46;;;;;;;12.02;8.80;;;;;;;21.78;100.00;100586.31;5197376;28;20044;-75
2022/08/05 11:03:17;;;;;;;13.95;9.13;;;;;;;21.49;100.00;100583.31;5200768;28;20029;-76
2022/08/05 11:06:08;;;;;;;15.23;9.02;;;;;;;21.77;100.00;100576.66;5199912;28;20033;-76
2022/08/05 11:09:17;;;;;;;10.48;6.43;;;;;;;21.91;100.00;100571.06;5195654;28;20017;-75
2022/08/05 11:11:49;;;;;;;10.15;6.63;;;;;;;21.78;100.00;100571.19;5197074;28;20626;-75
2022/08/05 11:14:28;;;;;;;8.90;6.35;;;;;;;21.90;100.00;100569.38;5200676;28;20037;-75
2022/08/05 11:17:37;;;;;;;11.32;6.53;;;;;;;21.86;100.00;100567.91;5197641;28;20515;-75
2022/08/05 11:20:39;;;;;;;8.20;6.07;;;;;;;21.90;100.00;100574.69;5195897;28;20029;-75
2022/08/05 11:23:40;;;;;;;9.48;6.95;;;;;;;21.91;100.00;100566.56;5193638;28;20491;-75
2022/08/05 11:26:20;;;;;;;10.18;6.63;;;;;;;21.89;100.00;100578.31;5196600;28;20102;-74
2022/08/05 11:28:52;;;;;;;10.00;6.22;;;;;;;21.94;100.00;100576.94;5194396;28;20042;-75
2022/08/05 11:31:29;;;;;;;12.43;7.30;;;;;;;21.97;100.00;100575.84;5200155;28;20111;-76
2022/08/05 11:34:06;;;;;;;10.27;6.97;;;;;;;22.13;100.00;100576.28;5195634;28;20042;-75
2022/08/05 11:36:50;;;;;;;11.55;7.43;;;;;;;22.30;100.00;100575.72;5198498;28;20061;-74
2022/08/05 11:39:48;;;;;;;11.98;6.70;;;;;;;22.35;100.00;100578.84;5198425;28;20017;-75